createdAt,value
2022-12-23T00:00:07.745Z,980.94
2022-12-23T00:01:07.708Z,980.98
2022-12-23T00:02:07.831Z,980.99
2022-12-23T00:03:07.824Z,981.02
2022-12-23T00:04:07.780Z,981.04
2022-12-23T00:05:07.680Z,980.98
2022-12-23T00:06:07.660Z,981.01
2022-12-23T00:07:07.647Z,980.98
2022-12-23T00:08:07.663Z,981.04
2022-12-23T00:09:07.626Z,981.01
2022-12-23T00:10:07.647Z,980.92
2022-12-23T00:11:07.610Z,980.95
2022-12-23T00:12:07.610Z,980.95
2022-12-23T00:13:07.614Z,980.94
2022-12-23T00:14:07.595Z,980.94
2022-12-23T00:15:07.613Z,980.92
2022-12-23T00:16:07.592Z,980.87
2022-12-23T00:17:21.667Z,980.93
2022-12-23T00:18:09.536Z,980.87
2022-12-23T00:19:07.526Z,980.88
2022-12-23T00:20:07.568Z,980.90
2022-12-23T00:21:09.084Z,980.89
2022-12-23T00:22:07.497Z,980.88
2022-12-23T00:23:07.489Z,980.91
2022-12-23T00:24:07.480Z,980.85
2022-12-23T00:25:07.485Z,980.86
2022-12-23T00:26:07.473Z,980.83
2022-12-23T00:27:07.453Z,980.80
2022-12-23T00:28:07.445Z,980.82
2022-12-23T00:29:07.432Z,980.80
2022-12-23T00:30:07.435Z,980.80
2022-12-23T00:31:07.447Z,980.79
2022-12-23T00:32:07.508Z,980.80
2022-12-23T00:33:07.395Z,980.86
2022-12-23T00:34:07.381Z,980.86
2022-12-23T00:35:07.387Z,980.77
2022-12-23T00:36:07.394Z,980.76
2022-12-23T00:37:07.350Z,980.77
2022-12-23T00:38:07.341Z,980.78
2022-12-23T00:39:07.335Z,980.75
2022-12-23T00:40:07.343Z,980.74
2022-12-23T00:41:07.316Z,980.75
2022-12-23T00:42:07.303Z,980.77
2022-12-23T00:43:07.285Z,980.74
2022-12-23T00:44:07.279Z,980.70
2022-12-23T00:45:07.283Z,980.66
2022-12-23T00:46:07.304Z,980.69
2022-12-23T00:47:08.147Z,980.72
2022-12-23T00:48:07.394Z,980.72
2022-12-23T00:49:07.221Z,980.70
2022-12-23T00:50:07.262Z,980.77
2022-12-23T00:51:07.219Z,980.79
2022-12-23T00:52:07.195Z,980.71
2022-12-23T00:53:07.197Z,980.77
2022-12-23T00:54:07.183Z,980.75
2022-12-23T00:55:07.168Z,980.76
2022-12-23T00:56:07.176Z,980.71
2022-12-23T00:57:07.184Z,980.74
2022-12-23T00:58:07.138Z,980.77
2022-12-23T00:59:07.143Z,980.79
2022-12-23T01:00:07.128Z,980.74
2022-12-23T01:01:07.149Z,980.71
2022-12-23T01:02:07.253Z,980.73
2022-12-23T01:03:07.228Z,980.72
2022-12-23T01:04:07.091Z,980.71
2022-12-23T01:05:07.077Z,980.76
2022-12-23T01:06:07.088Z,980.76
2022-12-23T01:07:07.049Z,980.84
2022-12-23T01:08:07.053Z,980.84
2022-12-23T01:09:07.048Z,980.83
2022-12-23T01:10:07.020Z,980.84
2022-12-23T01:11:07.022Z,980.84
2022-12-23T01:12:07.013Z,980.82
2022-12-23T01:13:06.992Z,980.79
2022-12-23T01:14:06.988Z,980.84
2022-12-23T01:15:06.975Z,980.83
2022-12-23T01:16:11.782Z,980.83
2022-12-23T01:17:07.029Z,980.82
2022-12-23T01:18:06.952Z,980.88
2022-12-23T01:19:06.931Z,980.86
2022-12-23T01:20:06.928Z,980.79
2022-12-23T01:21:06.929Z,980.83
2022-12-23T01:22:06.925Z,980.82
2022-12-23T01:23:06.887Z,980.86
2022-12-23T01:24:06.882Z,980.80
2022-12-23T01:25:06.880Z,980.87
2022-12-23T01:26:40.590Z,980.86
2022-12-23T01:27:06.849Z,980.87
2022-12-23T01:28:06.842Z,980.81
2022-12-23T01:29:06.830Z,980.90
2022-12-23T01:30:06.824Z,980.87
2022-12-23T01:31:06.832Z,980.85
2022-12-23T01:32:06.887Z,980.86
2022-12-23T01:33:06.796Z,980.83
2022-12-23T01:34:06.790Z,980.86
2022-12-23T01:35:06.782Z,980.82
2022-12-23T01:36:06.790Z,980.86
2022-12-23T01:37:06.775Z,980.89
2022-12-23T01:38:06.752Z,980.88
2022-12-23T01:39:06.755Z,980.84
2022-12-23T01:40:06.729Z,980.81
2022-12-23T01:41:06.742Z,980.89
2022-12-23T01:42:06.714Z,980.78
2022-12-23T01:43:06.709Z,980.79
2022-12-23T01:44:06.697Z,980.81
2022-12-23T01:45:06.688Z,980.91
2022-12-23T01:46:06.727Z,980.91
2022-12-23T01:47:06.676Z,980.89
2022-12-23T01:48:06.674Z,980.97
2022-12-23T01:49:06.643Z,980.95
2022-12-23T01:50:06.636Z,980.99
2022-12-23T01:51:06.643Z,981.00
2022-12-23T01:52:06.617Z,980.99
2022-12-23T01:53:08.020Z,981.00
2022-12-23T01:54:07.595Z,981.08
2022-12-23T01:55:06.577Z,981.04
2022-12-23T01:56:06.606Z,981.07
2022-12-23T01:57:06.576Z,981.11
2022-12-23T01:58:06.587Z,981.08
2022-12-23T01:59:06.538Z,981.10
2022-12-23T02:00:06.525Z,981.07
2022-12-23T02:01:06.556Z,981.12
2022-12-23T02:02:06.664Z,981.12
2022-12-23T02:03:06.676Z,981.21
2022-12-23T02:04:06.505Z,981.20
2022-12-23T02:05:06.489Z,981.11
2022-12-23T02:06:06.495Z,981.13
2022-12-23T02:07:06.457Z,981.14
2022-12-23T02:08:06.451Z,981.16
2022-12-23T02:09:06.458Z,981.14
2022-12-23T02:10:06.444Z,981.09
2022-12-23T02:11:06.465Z,981.10
2022-12-23T02:12:06.416Z,981.12
2022-12-23T02:13:06.408Z,981.10
2022-12-23T02:14:06.405Z,981.11
2022-12-23T02:15:06.396Z,981.14
2022-12-23T02:16:06.401Z,981.08
2022-12-23T02:17:06.495Z,981.05
2022-12-23T02:18:06.361Z,981.02
2022-12-23T02:19:06.337Z,981.05
2022-12-23T02:20:06.340Z,981.07
2022-12-23T02:21:06.352Z,981.09
2022-12-23T02:22:06.336Z,981.09
2022-12-23T02:23:06.312Z,981.16
2022-12-23T02:24:06.307Z,981.16
2022-12-23T02:25:06.289Z,981.17
2022-12-23T02:26:06.292Z,981.19
2022-12-23T02:27:06.268Z,981.23
2022-12-23T02:28:06.262Z,981.19
2022-12-23T02:29:06.255Z,981.20
2022-12-23T02:30:06.244Z,981.26
2022-12-23T02:31:06.552Z,981.27
2022-12-23T02:32:06.215Z,981.28
2022-12-23T02:33:06.206Z,981.32
2022-12-23T02:34:06.210Z,981.29
2022-12-23T02:35:06.196Z,981.28
2022-12-23T02:36:06.177Z,981.27
2022-12-23T02:37:06.190Z,981.30
2022-12-23T02:38:06.157Z,981.30
2022-12-23T02:39:06.148Z,981.24
2022-12-23T02:40:06.139Z,981.28
2022-12-23T02:41:06.129Z,981.21
2022-12-23T02:42:06.137Z,981.22
2022-12-23T02:43:06.126Z,981.28
2022-12-23T02:44:06.101Z,981.35
2022-12-23T02:45:06.105Z,981.32
2022-12-23T02:46:06.178Z,981.33
2022-12-23T02:47:06.097Z,981.43
2022-12-23T02:48:06.065Z,981.38
2022-12-23T02:49:06.057Z,981.34
2022-12-23T02:50:06.041Z,981.46
2022-12-23T02:51:06.039Z,981.40
2022-12-23T02:52:06.038Z,981.44
2022-12-23T02:53:06.021Z,981.42
2022-12-23T02:54:05.991Z,981.43
2022-12-23T02:55:05.985Z,981.49
2022-12-23T02:56:05.990Z,981.50
2022-12-23T02:57:05.984Z,981.52
2022-12-23T02:58:05.968Z,981.51
2022-12-23T02:59:05.963Z,981.54
2022-12-23T03:00:05.946Z,981.51
2022-12-23T03:01:06.027Z,981.49
2022-12-23T03:02:06.120Z,981.48
2022-12-23T03:03:06.042Z,981.42
2022-12-23T03:04:06.888Z,981.40
2022-12-23T03:05:06.901Z,981.46
2022-12-23T03:06:05.871Z,981.38
2022-12-23T03:07:08.023Z,981.42
2022-12-23T03:08:06.869Z,981.37
2022-12-23T03:09:05.859Z,981.34
2022-12-23T03:10:05.836Z,981.33
2022-12-23T03:11:05.820Z,981.31
2022-12-23T03:12:05.846Z,981.38
2022-12-23T03:13:05.809Z,981.40
2022-12-23T03:14:05.797Z,981.35
2022-12-23T03:15:05.789Z,981.34
2022-12-23T03:16:05.864Z,981.35
2022-12-23T03:17:05.792Z,981.33
2022-12-23T03:18:05.763Z,981.35
2022-12-23T03:19:05.754Z,981.33
2022-12-23T03:20:05.735Z,981.36
2022-12-23T03:21:05.732Z,981.41
2022-12-23T03:22:05.728Z,981.35
2022-12-23T03:23:05.710Z,981.35
2022-12-23T03:24:05.700Z,981.33
2022-12-23T03:25:05.698Z,981.36
2022-12-23T03:26:05.670Z,981.33
2022-12-23T03:27:05.706Z,981.39
2022-12-23T03:28:05.673Z,981.37
2022-12-23T03:29:05.656Z,981.38
2022-12-23T03:30:05.640Z,981.39
2022-12-23T03:31:05.713Z,981.37
2022-12-23T03:32:05.662Z,981.37
2022-12-23T03:33:05.612Z,981.31
2022-12-23T03:34:05.608Z,981.22
2022-12-23T03:35:05.591Z,981.28
2022-12-23T03:36:05.585Z,981.26
2022-12-23T03:37:05.584Z,981.24
2022-12-23T03:38:05.562Z,981.36
2022-12-23T03:39:05.560Z,981.32
2022-12-23T03:40:05.539Z,981.31
2022-12-23T03:41:05.546Z,981.33
2022-12-23T03:42:05.537Z,981.26
2022-12-23T03:43:05.518Z,981.24
2022-12-23T03:44:05.502Z,981.29
2022-12-23T03:46:07.534Z,981.35
2022-12-23T03:47:05.495Z,981.32
2022-12-23T03:48:05.477Z,981.31
2022-12-23T03:49:05.478Z,981.30
2022-12-23T03:50:05.446Z,981.33
2022-12-23T03:51:05.435Z,981.26
2022-12-23T03:52:05.445Z,981.35
2022-12-23T03:53:05.417Z,981.29
2022-12-23T03:54:05.420Z,981.32
2022-12-23T03:55:05.398Z,981.35
2022-12-23T03:56:05.389Z,981.36
2022-12-23T03:57:05.399Z,981.35
2022-12-23T03:58:05.361Z,981.39
2022-12-23T03:59:05.371Z,981.36
2022-12-23T04:00:05.358Z,981.46
2022-12-23T04:01:05.385Z,981.44
2022-12-23T04:02:05.484Z,981.37
2022-12-23T04:03:05.391Z,981.41
2022-12-23T04:04:05.338Z,981.46
2022-12-23T04:05:05.304Z,981.51
2022-12-23T04:06:05.276Z,981.49
2022-12-23T04:07:05.310Z,981.54
2022-12-23T04:08:05.278Z,981.52
2022-12-23T04:09:05.268Z,981.53
2022-12-23T04:10:05.249Z,981.59
2022-12-23T04:11:05.243Z,981.58
2022-12-23T04:12:05.264Z,981.60
2022-12-23T04:13:05.224Z,981.59
2022-12-23T04:14:05.206Z,981.50
2022-12-23T04:15:12.278Z,981.58
2022-12-23T04:16:06.209Z,981.60
2022-12-23T04:17:05.209Z,981.61
2022-12-23T04:18:05.170Z,981.63
2022-12-23T04:19:05.166Z,981.68
2022-12-23T04:20:05.168Z,981.69
2022-12-23T04:21:05.152Z,981.71
2022-12-23T04:22:05.129Z,981.67
2022-12-23T04:23:05.166Z,981.69
2022-12-23T04:24:05.108Z,981.79
2022-12-23T04:25:05.119Z,981.76
2022-12-23T04:26:05.092Z,981.77
2022-12-23T04:27:05.096Z,981.86
2022-12-23T04:28:05.099Z,981.77
2022-12-23T04:29:05.066Z,981.83
2022-12-23T04:30:05.059Z,981.88
2022-12-23T04:31:05.093Z,981.91
2022-12-23T04:32:05.046Z,981.82
2022-12-23T04:33:05.043Z,981.83
2022-12-23T04:34:05.022Z,981.86
2022-12-23T04:35:05.012Z,981.83
2022-12-23T04:36:05.008Z,981.78
2022-12-23T04:37:04.993Z,981.87
2022-12-23T04:38:05.000Z,981.83
2022-12-23T04:39:04.981Z,981.83
2022-12-23T04:40:04.968Z,981.81
2022-12-23T04:41:04.952Z,981.77
2022-12-23T04:42:04.951Z,981.77
2022-12-23T04:43:04.959Z,981.84
2022-12-23T04:44:04.960Z,981.78
2022-12-23T04:45:04.906Z,981.84
2022-12-23T04:46:04.907Z,981.92
2022-12-23T04:47:04.984Z,981.87
2022-12-23T04:48:04.910Z,981.87
2022-12-23T04:49:04.882Z,981.90
2022-12-23T04:50:04.871Z,981.83
2022-12-23T04:51:04.889Z,981.83
2022-12-23T04:52:04.843Z,981.91
2022-12-23T04:53:04.863Z,981.89
2022-12-23T04:54:04.830Z,981.92
2022-12-23T04:55:04.823Z,981.89
2022-12-23T04:56:04.815Z,981.93
2022-12-23T04:57:04.797Z,981.91
2022-12-23T04:58:04.818Z,981.90
2022-12-23T04:59:04.793Z,981.89
2022-12-23T05:00:04.779Z,981.87
2022-12-23T05:01:04.864Z,981.79
2022-12-23T05:02:04.923Z,981.79
2022-12-23T05:03:04.938Z,981.78
2022-12-23T05:04:04.774Z,981.77
2022-12-23T05:05:04.719Z,981.78
2022-12-23T05:06:04.718Z,981.75
2022-12-23T05:07:04.710Z,981.76
2022-12-23T05:08:04.733Z,981.80
2022-12-23T05:09:04.689Z,981.74
2022-12-23T05:10:04.674Z,981.69
2022-12-23T05:11:04.671Z,981.73
2022-12-23T05:12:04.659Z,981.68
2022-12-23T05:13:04.663Z,981.72
2022-12-23T05:14:04.643Z,981.75
2022-12-23T05:15:04.640Z,981.75
2022-12-23T05:16:04.665Z,981.74
2022-12-23T05:17:07.646Z,981.75
2022-12-23T05:18:04.624Z,981.79
2022-12-23T05:19:04.597Z,981.79
2022-12-23T05:20:04.588Z,981.75
2022-12-23T05:21:04.566Z,981.83
2022-12-23T05:22:04.563Z,981.96
2022-12-23T05:23:04.577Z,981.89
2022-12-23T05:24:04.570Z,981.93
2022-12-23T05:25:04.610Z,981.90
2022-12-23T05:26:04.528Z,981.93
2022-12-23T05:27:04.524Z,981.92
2022-12-23T05:28:04.540Z,981.97
2022-12-23T05:29:04.493Z,981.98
2022-12-23T05:30:04.494Z,981.95
2022-12-23T05:31:04.560Z,982.00
2022-12-23T05:32:04.554Z,981.98
2022-12-23T05:33:04.606Z,982.05
2022-12-23T05:34:06.804Z,981.98
2022-12-23T05:35:05.444Z,981.96
2022-12-23T05:36:04.452Z,981.90
2022-12-23T05:37:04.420Z,981.93
2022-12-23T05:38:04.435Z,981.91
2022-12-23T05:39:04.399Z,981.87
2022-12-23T05:40:04.401Z,981.96
2022-12-23T05:41:04.367Z,981.96
2022-12-23T05:42:04.359Z,982.02
2022-12-23T05:43:04.373Z,982.02
2022-12-23T05:44:04.344Z,982.06
2022-12-23T05:45:04.334Z,982.06
2022-12-23T05:46:04.387Z,982.15
2022-12-23T05:47:04.319Z,982.16
2022-12-23T05:48:04.338Z,982.17
2022-12-23T05:49:04.308Z,982.16
2022-12-23T05:50:04.282Z,982.14
2022-12-23T05:51:04.285Z,982.18
2022-12-23T05:52:04.268Z,982.23
2022-12-23T05:53:04.392Z,982.22
2022-12-23T05:54:04.253Z,982.21
2022-12-23T05:55:04.242Z,982.19
2022-12-23T05:56:04.229Z,982.24
2022-12-23T05:57:04.215Z,982.18
2022-12-23T05:58:04.230Z,982.20
2022-12-23T05:59:04.212Z,982.22
2022-12-23T06:00:04.218Z,982.24
2022-12-23T06:01:04.174Z,982.23
2022-12-23T06:02:04.367Z,982.21
2022-12-23T06:03:04.388Z,982.22
2022-12-23T06:04:04.270Z,982.20
2022-12-23T06:05:04.127Z,982.19
2022-12-23T06:06:04.139Z,982.26
2022-12-23T06:07:04.129Z,982.25
2022-12-23T06:08:04.103Z,982.25
2022-12-23T06:09:04.118Z,982.28
2022-12-23T06:10:04.099Z,982.29
2022-12-23T06:11:04.082Z,982.28
2022-12-23T06:12:04.087Z,982.24
2022-12-23T06:13:04.080Z,982.20
2022-12-23T06:14:04.079Z,982.26
2022-12-23T06:15:04.041Z,982.26
2022-12-23T06:16:04.052Z,982.19
2022-12-23T06:17:04.121Z,982.22
2022-12-23T06:18:04.012Z,982.29
2022-12-23T06:19:04.030Z,982.29
2022-12-23T06:20:04.210Z,982.32
2022-12-23T06:21:04.052Z,982.35
2022-12-23T06:22:03.986Z,982.32
2022-12-23T06:23:03.973Z,982.29
2022-12-23T06:24:03.985Z,982.31
2022-12-23T06:25:03.939Z,982.35
2022-12-23T06:26:03.941Z,982.35
2022-12-23T06:27:03.932Z,982.34
2022-12-23T06:28:03.929Z,982.31
2022-12-23T06:29:03.928Z,982.29
2022-12-23T06:30:03.906Z,982.34
2022-12-23T06:31:03.924Z,982.29
2022-12-23T06:32:03.924Z,982.34
2022-12-23T06:33:03.866Z,982.30
2022-12-23T06:34:03.887Z,982.29
2022-12-23T06:35:03.852Z,982.34
2022-12-23T06:36:03.846Z,982.31
2022-12-23T06:37:03.821Z,982.35
2022-12-23T06:38:07.507Z,982.38
2022-12-23T06:39:05.930Z,982.46
2022-12-23T06:40:03.804Z,982.42
2022-12-23T06:41:03.785Z,982.44
2022-12-23T06:42:03.782Z,982.44
2022-12-23T06:43:04.642Z,982.51
2022-12-23T06:44:03.774Z,982.40
2022-12-23T06:45:03.757Z,982.50
2022-12-23T06:46:03.785Z,982.53
2022-12-23T06:47:03.723Z,982.57
2022-12-23T06:48:04.707Z,982.62
2022-12-23T06:49:09.066Z,982.61
2022-12-23T06:50:05.710Z,982.62
2022-12-23T06:51:03.698Z,982.69
2022-12-23T06:52:03.671Z,982.64
2022-12-23T06:53:03.675Z,982.67
2022-12-23T06:54:03.702Z,982.65
2022-12-23T06:55:03.661Z,982.69
2022-12-23T06:56:03.705Z,982.70
2022-12-23T06:57:03.628Z,982.80
2022-12-23T06:58:03.643Z,982.82
2022-12-23T06:59:03.660Z,982.83
2022-12-23T07:00:03.639Z,982.85
2022-12-23T07:01:03.693Z,982.85
2022-12-23T07:02:03.803Z,982.88
2022-12-23T07:03:03.823Z,982.83
2022-12-23T07:04:03.603Z,982.88
2022-12-23T07:05:03.555Z,982.87
2022-12-23T07:06:03.573Z,982.85
2022-12-23T07:07:03.546Z,982.94
2022-12-23T07:08:03.522Z,982.90
2022-12-23T07:09:03.537Z,982.98
2022-12-23T07:10:03.543Z,982.91
2022-12-23T07:11:03.563Z,982.93
2022-12-23T07:12:03.509Z,982.94
2022-12-23T07:13:03.487Z,982.99
2022-12-23T07:14:03.512Z,982.99
2022-12-23T07:15:03.467Z,983.02
2022-12-23T07:16:03.447Z,982.97
2022-12-23T07:17:03.584Z,982.97
2022-12-23T07:18:03.436Z,983.01
2022-12-23T07:19:03.462Z,983.03
2022-12-23T07:20:03.404Z,983.05
2022-12-23T07:21:03.425Z,983.03
2022-12-23T07:22:03.405Z,982.94
2022-12-23T07:23:03.459Z,982.92
2022-12-23T07:24:03.402Z,982.97
2022-12-23T07:25:03.382Z,982.96
2022-12-23T07:26:03.358Z,982.97
2022-12-23T07:28:35.238Z,982.88
2022-12-23T07:29:03.353Z,982.94
2022-12-23T07:30:03.328Z,982.89
2022-12-23T07:31:03.317Z,982.93
2022-12-23T07:32:03.336Z,982.89
2022-12-23T07:33:04.287Z,982.91
2022-12-23T07:34:03.287Z,982.91
2022-12-23T07:35:03.263Z,982.96
2022-12-23T07:36:03.259Z,982.91
2022-12-23T07:37:03.249Z,982.96
2022-12-23T07:38:03.240Z,982.95
2022-12-23T07:39:03.244Z,982.95
2022-12-23T07:40:08.316Z,982.99
2022-12-23T07:41:05.208Z,982.97
2022-12-23T07:42:33.854Z,982.95
2022-12-23T07:43:05.271Z,982.91
2022-12-23T07:44:03.186Z,982.92
2022-12-23T07:45:03.167Z,982.99
2022-12-23T07:46:03.192Z,982.96
2022-12-23T07:47:03.156Z,982.86
2022-12-23T07:48:03.138Z,982.85
2022-12-23T07:49:03.151Z,982.83
2022-12-23T07:50:03.118Z,982.90
2022-12-23T07:51:03.111Z,982.84
2022-12-23T07:52:03.093Z,982.85
2022-12-23T07:53:03.098Z,982.86
2022-12-23T07:54:03.107Z,982.93
2022-12-23T07:55:03.075Z,982.88
2022-12-23T07:56:03.070Z,982.84
2022-12-23T07:57:03.044Z,982.89
2022-12-23T07:58:03.060Z,982.87
2022-12-23T07:59:03.186Z,982.87
2022-12-23T08:00:03.028Z,982.89
2022-12-23T08:01:03.113Z,982.96
2022-12-23T08:02:03.222Z,982.88
2022-12-23T08:03:03.169Z,982.93
2022-12-23T08:04:03.008Z,982.98
2022-12-23T08:05:03.037Z,982.99
2022-12-23T08:06:02.982Z,983.02
2022-12-23T08:07:02.949Z,982.93
2022-12-23T08:08:02.941Z,982.96
2022-12-23T08:09:02.957Z,982.94
2022-12-23T08:10:02.925Z,982.97
2022-12-23T08:11:02.909Z,982.91
2022-12-23T08:12:02.895Z,983.00
2022-12-23T08:13:02.909Z,983.00
2022-12-23T08:14:02.899Z,983.09
2022-12-23T08:15:02.899Z,983.13
2022-12-23T08:16:02.879Z,983.16
2022-12-23T08:17:03.001Z,983.19
2022-12-23T08:18:02.851Z,983.23
2022-12-23T08:19:02.830Z,983.19
2022-12-23T08:20:02.850Z,983.30
2022-12-23T08:21:02.823Z,983.41
2022-12-23T08:22:02.840Z,983.34
2022-12-23T08:23:02.787Z,983.45
2022-12-23T08:24:02.788Z,983.43
2022-12-23T08:25:02.793Z,983.42
2022-12-23T08:26:02.767Z,983.35
2022-12-23T08:27:02.769Z,983.33
2022-12-23T08:28:02.751Z,983.33
2022-12-23T08:29:02.745Z,983.38
2022-12-23T08:30:02.759Z,983.41
2022-12-23T08:31:02.806Z,983.45
2022-12-23T08:32:02.714Z,983.43
2022-12-23T08:33:02.706Z,983.45
2022-12-23T08:34:02.702Z,983.47
2022-12-23T08:35:02.714Z,983.43
2022-12-23T08:36:02.669Z,983.46
2022-12-23T08:37:02.672Z,983.51
2022-12-23T08:38:02.661Z,983.50
2022-12-23T08:39:02.645Z,983.44
2022-12-23T08:40:02.672Z,983.38
2022-12-23T08:41:02.637Z,983.56
2022-12-23T08:42:02.621Z,983.53
2022-12-23T08:43:02.604Z,983.52
2022-12-23T08:44:02.605Z,983.44
2022-12-23T08:45:02.609Z,983.41
2022-12-23T08:46:02.652Z,983.39
2022-12-23T08:47:02.554Z,983.40
2022-12-23T08:48:02.563Z,983.32
2022-12-23T08:49:02.554Z,983.35
2022-12-23T08:50:02.568Z,983.26
2022-12-23T08:51:02.528Z,983.29
2022-12-23T08:52:02.528Z,983.27
2022-12-23T08:53:02.511Z,983.30
2022-12-23T08:54:02.513Z,983.32
2022-12-23T08:55:02.501Z,983.26
2022-12-23T08:56:02.489Z,983.28
2022-12-23T08:57:02.480Z,983.32
2022-12-23T08:58:02.463Z,983.27
2022-12-23T08:59:02.481Z,983.32
2022-12-23T09:00:02.465Z,983.32
2022-12-23T09:01:02.472Z,983.37
2022-12-23T09:02:02.538Z,983.38
2022-12-23T09:03:02.630Z,983.34
2022-12-23T09:04:02.469Z,983.36
2022-12-23T09:05:02.492Z,983.40
2022-12-23T09:06:02.388Z,983.33
2022-12-23T09:07:02.389Z,983.39
2022-12-23T09:08:02.375Z,983.33
2022-12-23T09:09:02.397Z,983.39
2022-12-23T09:10:02.364Z,983.41
2022-12-23T09:11:02.329Z,983.44
2022-12-23T09:12:02.331Z,983.40
2022-12-23T09:13:02.325Z,983.48
2022-12-23T09:14:02.321Z,983.42
2022-12-23T09:15:02.320Z,983.43
2022-12-23T09:16:02.347Z,983.43
2022-12-23T09:17:02.286Z,983.44
2022-12-23T09:18:02.280Z,983.42
2022-12-23T09:19:02.263Z,983.42
2022-12-23T09:20:02.278Z,983.43
2022-12-23T09:21:02.246Z,983.41
2022-12-23T09:22:02.260Z,983.42
2022-12-23T09:23:02.228Z,983.43
2022-12-23T09:24:02.202Z,983.43
2022-12-23T09:25:05.236Z,983.42
2022-12-23T09:26:03.203Z,983.34
2022-12-23T09:27:02.184Z,983.39
2022-12-23T09:28:02.187Z,983.38
2022-12-23T09:29:02.179Z,983.34
2022-12-23T09:30:02.187Z,983.39
2022-12-23T09:31:02.172Z,983.42
2022-12-23T09:32:02.131Z,983.41
2022-12-23T09:33:02.139Z,983.37
2022-12-23T09:34:02.123Z,983.47
2022-12-23T09:35:02.119Z,983.41
2022-12-23T09:36:02.106Z,983.37
2022-12-23T09:37:02.100Z,983.45
2022-12-23T09:38:02.082Z,983.42
2022-12-23T09:39:02.065Z,983.46
2022-12-23T09:40:02.080Z,983.35
2022-12-23T09:41:02.056Z,983.48
2022-12-23T09:42:02.043Z,983.52
2022-12-23T09:43:02.054Z,983.55
2022-12-23T09:44:02.023Z,983.44
2022-12-23T09:45:02.060Z,983.43
2022-12-23T09:46:02.037Z,983.44
2022-12-23T09:47:02.173Z,983.49
2022-12-23T09:48:01.972Z,983.42
2022-12-23T09:49:02.004Z,983.34
2022-12-23T09:50:01.975Z,983.41
2022-12-23T09:51:02.951Z,983.53
2022-12-23T09:52:01.945Z,983.55
2022-12-23T09:53:01.936Z,983.51
2022-12-23T09:54:01.929Z,983.39
2022-12-23T09:55:01.942Z,983.41
2022-12-23T09:56:01.898Z,983.41
2022-12-23T09:57:01.893Z,983.55
2022-12-23T09:58:01.914Z,983.52
2022-12-23T09:59:01.897Z,983.41
2022-12-23T10:00:01.930Z,983.38
2022-12-23T10:01:01.858Z,983.45
2022-12-23T10:02:01.945Z,983.49
2022-12-23T10:03:01.951Z,983.52
2022-12-23T10:04:01.864Z,983.47
2022-12-23T10:05:01.832Z,983.40
2022-12-23T10:06:01.811Z,983.46
2022-12-23T10:07:03.172Z,983.52
2022-12-23T10:08:02.780Z,983.45
2022-12-23T10:09:01.767Z,983.44
2022-12-23T10:10:01.807Z,983.45
2022-12-23T10:11:01.803Z,983.35
2022-12-23T10:12:01.743Z,983.48
2022-12-23T10:13:01.727Z,983.44
2022-12-23T10:14:01.722Z,983.45
2022-12-23T10:15:01.726Z,983.52
2022-12-23T10:16:01.751Z,983.48
2022-12-23T10:17:01.701Z,983.46
2022-12-23T10:18:01.693Z,983.38
2022-12-23T10:19:01.661Z,983.39
2022-12-23T10:20:01.671Z,983.31
2022-12-23T10:21:01.676Z,983.20
2022-12-23T10:22:01.656Z,983.24
2022-12-23T10:23:01.617Z,983.22
2022-12-23T10:24:01.624Z,983.21
2022-12-23T10:25:01.635Z,983.21
2022-12-23T10:26:01.620Z,983.18
2022-12-23T10:27:01.589Z,983.25
2022-12-23T10:28:01.581Z,983.21
2022-12-23T10:29:01.566Z,983.11
2022-12-23T10:30:20.088Z,983.11
2022-12-23T10:31:39.255Z,983.21
2022-12-23T10:32:03.593Z,983.16
2022-12-23T10:33:01.530Z,983.22
2022-12-23T10:34:01.529Z,983.13
2022-12-23T10:35:01.557Z,983.13
2022-12-23T10:36:01.565Z,983.11
2022-12-23T10:37:01.559Z,983.13
2022-12-23T10:38:01.472Z,983.14
2022-12-23T10:39:01.484Z,983.12
2022-12-23T10:40:01.486Z,983.13
2022-12-23T10:41:08.872Z,983.19
2022-12-23T10:42:02.450Z,983.18
2022-12-23T10:43:01.435Z,983.21
2022-12-23T10:44:01.419Z,983.18
2022-12-23T10:45:01.417Z,983.22
2022-12-23T10:46:01.421Z,983.21
2022-12-23T10:47:01.482Z,983.24
2022-12-23T10:48:01.383Z,983.20
2022-12-23T10:49:01.388Z,983.16
2022-12-23T10:50:01.391Z,983.16
2022-12-23T10:51:01.383Z,983.15
2022-12-23T10:52:01.335Z,983.12
2022-12-23T10:53:01.326Z,983.12
2022-12-23T10:54:01.325Z,983.12
2022-12-23T10:55:01.396Z,983.20
2022-12-23T10:56:01.325Z,983.16
2022-12-23T10:57:01.296Z,983.15
2022-12-23T10:58:01.275Z,983.18
2022-12-23T10:59:01.288Z,983.09
2022-12-23T11:00:01.258Z,983.04
2022-12-23T11:01:01.351Z,982.99
2022-12-23T11:02:01.410Z,983.11
2022-12-23T11:03:01.357Z,983.09
2022-12-23T11:04:01.231Z,983.05
2022-12-23T11:05:01.213Z,983.16
2022-12-23T11:06:01.259Z,983.17
2022-12-23T11:07:34.481Z,983.20
2022-12-23T11:08:03.182Z,983.21
2022-12-23T11:09:01.161Z,983.13
2022-12-23T11:10:01.167Z,983.09
2022-12-23T11:11:01.187Z,983.16
2022-12-23T11:12:01.139Z,983.16
2022-12-23T11:13:01.127Z,983.14
2022-12-23T11:14:01.118Z,983.14
2022-12-23T11:15:01.107Z,983.13
2022-12-23T11:16:01.157Z,983.09
2022-12-23T11:17:01.075Z,983.09
2022-12-23T11:18:01.115Z,983.05
2022-12-23T11:19:01.101Z,983.11
2022-12-23T11:20:01.066Z,983.05
2022-12-23T11:21:01.073Z,983.10
2022-12-23T11:22:01.048Z,982.99
2022-12-23T11:23:01.034Z,982.97
2022-12-23T11:24:01.021Z,983.00
2022-12-23T11:25:01.017Z,982.95
2022-12-23T11:26:01.024Z,982.98
2022-12-23T11:27:00.998Z,982.95
2022-12-23T11:28:00.994Z,982.88
2022-12-23T11:29:00.980Z,982.93
2022-12-23T11:30:00.963Z,982.93
2022-12-23T11:31:00.975Z,982.91
2022-12-23T11:32:00.984Z,982.82
2022-12-23T11:33:00.945Z,982.83
2022-12-23T11:34:00.922Z,982.77
2022-12-23T11:35:01.001Z,982.76
2022-12-23T11:36:00.910Z,982.77
2022-12-23T11:37:05.396Z,982.70
2022-12-23T11:38:01.898Z,982.72
2022-12-23T11:39:00.866Z,982.66
2022-12-23T11:40:00.872Z,982.68
2022-12-23T11:41:00.878Z,982.67
2022-12-23T11:42:00.851Z,982.65
2022-12-23T11:43:00.875Z,982.65
2022-12-23T11:44:00.864Z,982.65
2022-12-23T11:45:00.834Z,982.55
2022-12-23T11:46:00.923Z,982.55
2022-12-23T11:47:00.808Z,982.47
2022-12-23T11:48:00.780Z,982.42
2022-12-23T11:49:00.793Z,982.35
2022-12-23T11:50:00.796Z,982.34
2022-12-23T11:51:00.777Z,982.32
2022-12-23T11:52:00.752Z,982.31
2022-12-23T11:53:00.728Z,982.32
2022-12-23T11:54:00.732Z,982.34
2022-12-23T11:55:00.708Z,982.21
2022-12-23T11:56:00.727Z,982.25
2022-12-23T11:57:00.799Z,982.26
2022-12-23T11:58:00.697Z,982.25
2022-12-23T11:59:01.695Z,982.21
2022-12-23T12:00:00.693Z,982.19
2022-12-23T12:01:00.665Z,982.25
2022-12-23T12:02:00.698Z,982.22
2022-12-23T12:03:00.665Z,982.26
2022-12-23T12:04:00.719Z,982.28
2022-12-23T12:05:00.605Z,982.27
2022-12-23T12:06:00.617Z,982.31
2022-12-23T12:07:00.601Z,982.22
2022-12-23T12:08:00.588Z,982.19
2022-12-23T12:09:00.566Z,982.17
2022-12-23T12:10:00.567Z,982.18
2022-12-23T12:11:00.571Z,982.19
2022-12-23T12:12:00.586Z,982.17
2022-12-23T12:13:00.553Z,982.12
2022-12-23T12:14:00.537Z,982.13
2022-12-23T12:15:00.534Z,982.04
2022-12-23T12:16:00.535Z,982.03
2022-12-23T12:17:00.552Z,982.03
2022-12-23T12:18:00.493Z,981.94
2022-12-23T12:19:00.475Z,982.00
2022-12-23T12:20:00.483Z,981.98
2022-12-23T12:21:00.445Z,981.94
2022-12-23T12:22:00.477Z,981.96
2022-12-23T12:23:00.452Z,982.01
2022-12-23T12:24:17.786Z,981.99
2022-12-23T12:25:02.411Z,982.00
2022-12-23T12:26:00.422Z,982.11
2022-12-23T12:27:00.433Z,982.05
2022-12-23T12:28:00.393Z,982.07
2022-12-23T12:29:00.369Z,982.06
2022-12-23T12:30:06.163Z,982.00